Time;durP1;ratioP1;P1;durP2;ratioP2;P2;SDS_P1;SDS_P2;PMS_P1;PMS_P2;Temp;Humidity;BMP_temperature;BMP_pressure;BME280_temperature;BME280_humidity;BME280_pressure;Samples;Min_cycle;Max_cycle;Signal;HPM_P1;HPM_P2
2021/04/08 00:00:17;;;;;;;4.63;1.10;;;4.90;99.90;;;;;;5072439;28;20082;-92
2021/04/08 00:02:44;;;;;;;5.28;1.40;;;4.90;99.90;;;;;;5063909;28;20044;-92
2021/04/08 00:05:15;;;;;;;6.85;1.40;;;4.80;99.90;;;;;;5054830;28;20044;-92
2021/04/08 00:07:43;;;;;;;7.13;1.65;;;4.80;99.90;;;;;;5059589;28;20109;-92
2021/04/08 00:10:14;;;;;;;7.88;1.50;;;4.80;99.90;;;;;;5047211;28;20045;-92
2021/04/08 00:12:42;;;;;;;6.72;1.30;;;4.80;99.90;;;;;;5055934;28;20064;-92
2021/04/08 00:15:15;;;;;;;5.53;1.27;;;4.70;99.90;;;;;;5070901;28;20072;-92
2021/04/08 00:17:48;;;;;;;6.72;1.98;;;4.70;99.90;;;;;;5072991;28;20462;-92
2021/04/08 00:20:37;;;;;;;5.25;1.20;;;4.70;99.90;;;;;;5072241;28;20040;-92
2021/04/08 00:23:04;;;;;;;6.25;1.40;;;4.70;99.90;;;;;;5046514;28;20119;-91
2021/04/08 00:25:48;;;;;;;6.40;1.23;;;4.70;99.90;;;;;;5035364;28;20041;-91
2021/04/08 00:28:19;;;;;;;2.92;1.33;;;4.70;99.90;;;;;;5063194;28;20041;-91
2021/04/08 00:30:50;;;;;;;8.13;1.65;;;4.60;99.90;;;;;;5047840;28;20040;-92
2021/04/08 00:33:19;;;;;;;7.50;1.35;;;4.60;99.90;;;;;;5069117;28;20067;-92
2021/04/08 00:35:47;;;;;;;8.20;1.20;;;4.60;99.90;;;;;;5058407;28;20470;-91
2021/04/08 00:38:20;;;;;;;6.88;1.40;;;4.50;99.90;;;;;;5056137;28;20049;-92
2021/04/08 00:40:54;;;;;;;5.03;1.20;;;4.50;99.90;;;;;;5046997;28;20045;-92
2021/04/08 00:43:21;;;;;;;3.85;1.00;;;4.40;99.90;;;;;;5048593;28;20060;-92
2021/04/08 00:45:48;;;;;;;6.47;1.20;;;4.40;99.90;;;;;;5040749;28;20048;-92
2021/04/08 00:52:14;;;;;;;6.75;1.30;;;4.30;99.90;;;;;;5038773;28;20035;-93
2021/04/08 00:54:42;;;;;;;6.47;1.33;;;4.30;99.90;;;;;;5077782;28;20174;-93
2021/04/08 00:57:09;;;;;;;6.80;1.20;;;4.30;99.90;;;;;;5048401;28;20041;-92
2021/04/08 00:59:37;;;;;;;15.73;1.92;;;4.30;99.90;;;;;;5055072;28;20043;-93
2021/04/08 01:02:04;;;;;;;7.07;1.45;;;4.30;99.90;;;;;;5050819;28;20522;-92
2021/04/08 01:04:31;;;;;;;6.38;1.13;;;4.30;99.90;;;;;;5039006;28;20128;-92
2021/04/08 01:07:01;;;;;;;6.20;1.30;;;4.30;99.90;;;;;;5038442;28;20037;-92
2021/04/08 01:09:29;;;;;;;5.18;1.25;;;4.30;99.90;;;;;;5042320;28;20385;-92
2021/04/08 01:12:03;;;;;;;5.95;1.33;;;4.20;99.90;;;;;;5058197;28;20045;-92
2021/04/08 01:14:33;;;;;;;8.07;1.23;;;4.20;99.90;;;;;;5045921;28;20044;-91
2021/04/08 01:17:08;;;;;;;5.55;1.38;;;4.20;99.90;;;;;;5070211;28;20132;-92
2021/04/08 01:19:52;;;;;;;6.55;1.30;;;4.20;99.90;;;;;;5085754;28;20040;-91
2021/04/08 01:23:04;;;;;;;3.92;1.17;;;4.20;99.90;;;;;;5044724;28;20187;-92
2021/04/08 01:26:09;;;;;;;5.78;1.55;;;4.30;99.90;;;;;;5072953;28;20040;-91
2021/04/08 01:28:39;;;;;;;5.65;1.50;;;4.30;99.90;;;;;;5069907;28;20601;-91
2021/04/08 01:31:10;;;;;;;5.72;1.40;;;4.30;99.90;;;;;;5094573;28;20089;-90
2021/04/08 01:33:54;;;;;;;6.90;1.17;;;4.30;99.90;;;;;;5077651;28;20040;-91
2021/04/08 01:36:26;;;;;;;5.65;1.10;;;4.30;99.90;;;;;;5077858;28;20072;-91
2021/04/08 01:39:04;;;;;;;5.65;1.27;;;4.30;99.90;;;;;;5077406;28;20044;-92
2021/04/08 01:41:45;;;;;;;4.78;1.30;;;4.30;99.90;;;;;;5069090;28;20050;-92
2021/04/08 01:44:17;;;;;;;;;;;4.30;99.90;;;;;;5080424;28;20040;-92
2021/04/08 01:46:49;;;;;;;4.72;1.17;;;4.30;99.90;;;;;;5082781;28;19942;-91
2021/04/08 01:49:23;;;;;;;8.15;1.08;;;4.30;99.90;;;;;;5059842;28;20045;-91
2021/04/08 01:51:58;;;;;;;3.72;1.10;;;4.30;99.90;;;;;;5061403;28;20090;-91
2021/04/08 01:54:29;;;;;;;5.70;1.08;;;4.20;99.90;;;;;;5067112;28;20105;-91
2021/04/08 01:57:00;;;;;;;5.13;1.30;;;4.30;99.90;;;;;;5082360;28;20040;-91
2021/04/08 01:59:28;;;;;;;6.45;1.25;;;4.30;99.90;;;;;;5074181;28;20036;-92
2021/04/08 02:01:57;;;;;;;5.03;1.10;;;4.30;99.90;;;;;;5077916;28;20051;-92
2021/04/08 02:04:28;;;;;;;6.72;1.27;;;4.30;99.90;;;;;;5060662;28;20105;-91
2021/04/08 02:06:57;;;;;;;6.47;1.23;;;4.30;99.90;;;;;;5075133;28;20040;-92
2021/04/08 02:09:29;;;;;;;6.05;1.65;;;4.30;99.90;;;;;;5075117;28;20138;-92
2021/04/08 02:12:21;;;;;;;5.97;0.93;;;4.40;99.90;;;;;;5006814;28;20483;-92
2021/04/08 02:14:52;;;;;;;6.15;1.23;;;4.40;99.90;;;;;;5005779;28;20044;-91
2021/04/08 02:17:28;;;;;;;5.55;1.70;;;4.40;99.90;;;;;;5011561;28;20050;-92
2021/04/08 02:19:56;;;;;;;7.03;1.35;;;4.40;99.90;;;;;;4985291;28;20711;-92
2021/04/08 02:22:25;;;;;;;5.43;1.00;;;4.40;99.90;;;;;;4994042;28;20041;-92
2021/04/08 02:24:52;;;;;;;5.57;1.15;;;4.40;99.90;;;;;;4994356;28;20100;-92
2021/04/08 02:27:22;;;;;;;6.55;1.38;;;4.40;99.90;;;;;;4993631;28;20045;-92
2021/04/08 02:29:50;;;;;;;5.15;1.10;;;4.40;99.90;;;;;;5010035;28;20181;-92
2021/04/08 02:32:19;;;;;;;7.55;1.67;;;4.40;99.90;;;;;;5009493;28;20038;-90
2021/04/08 02:35:03;;;;;;;4.97;1.23;;;4.40;99.90;;;;;;4996844;28;20042;-92
2021/04/08 02:37:30;;;;;;;4.82;1.40;;;4.30;99.90;;;;;;5070878;28;20078;-92
2021/04/08 02:39:57;;;;;;;7.80;1.40;;;4.40;99.90;;;;;;5075150;28;20032;-92
2021/04/08 02:42:23;;;;;;;5.32;1.27;;;4.30;99.90;;;;;;5078133;28;22443;-92
2021/04/08 02:44:55;;;;;;;5.30;1.48;;;4.30;99.90;;;;;;5064062;28;20044;-92
2021/04/08 02:47:26;;;;;;;4.25;1.17;;;4.30;99.90;;;;;;5082967;28;20040;-92
2021/04/08 02:49:53;;;;;;;5.85;1.25;;;4.30;99.90;;;;;;5073576;28;20455;-90
2021/04/08 02:52:38;;;;;;;8.57;1.52;;;4.30;99.90;;;;;;5074477;28;20374;-92
2021/04/08 02:55:21;;;;;;;8.95;1.83;;;4.20;99.90;;;;;;5067034;28;20135;-92
2021/04/08 02:57:59;;;;;;;7.70;1.85;;;4.30;99.90;;;;;;5054857;28;20070;-92
2021/04/08 03:00:39;;;;;;;4.60;1.63;;;4.30;99.90;;;;;;5063058;28;20040;-92
2021/04/08 03:03:11;;;;;;;13.73;1.73;;;4.30;99.90;;;;;;5063906;28;20044;-92
2021/04/08 03:05:43;;;;;;;4.70;1.30;;;4.30;99.90;;;;;;5057587;28;20048;-92
2021/04/08 03:08:14;;;;;;;4.18;1.23;;;4.30;99.90;;;;;;5053813;28;20098;-92
2021/04/08 03:10:45;;;;;;;4.28;1.00;;;4.30;99.90;;;;;;5074044;28;20042;-92
2021/04/08 03:13:13;;;;;;;4.30;1.63;;;4.30;99.90;;;;;;5065674;28;20078;-91
2021/04/08 03:15:40;;;;;;;9.07;1.00;;;4.30;99.90;;;;;;5078156;28;20123;-91
2021/04/08 03:18:22;;;;;;;5.03;1.23;;;4.30;99.90;;;;;;5065179;28;20048;-92
2021/04/08 03:20:51;;;;;;;5.50;1.13;;;4.30;99.90;;;;;;5071496;28;20429;-91
2021/04/08 03:23:21;;;;;;;7.38;1.10;;;4.30;99.90;;;;;;5060326;28;20386;-91
2021/04/08 03:25:49;;;;;;;7.90;1.40;;;4.30;99.90;;;;;;5069687;28;20147;-91
2021/04/08 03:28:19;;;;;;;2.05;0.82;;;4.30;99.90;;;;;;5053399;28;20102;-91
2021/04/08 03:30:50;;;;;;;7.60;1.30;;;4.30;99.90;;;;;;5070440;28;20058;-91
2021/04/08 03:33:20;;;;;;;3.92;1.25;;;4.20;99.90;;;;;;5084000;28;20065;-92
2021/04/08 03:35:48;;;;;;;3.95;0.90;;;4.20;99.90;;;;;;5072344;28;20049;-91
2021/04/08 03:38:19;;;;;;;3.20;1.02;;;4.20;99.90;;;;;;5060926;28;20067;-91
2021/04/08 03:40:46;;;;;;;9.10;1.30;;;4.30;99.90;;;;;;5059404;28;20052;-91
2021/04/08 03:43:14;;;;;;;5.00;1.00;;;4.30;99.90;;;;;;5059671;28;20128;-92
2021/04/08 03:45:41;;;;;;;5.90;1.10;;;4.30;99.90;;;;;;5060833;28;20094;-91
2021/04/08 03:48:09;;;;;;;2.85;0.95;;;4.30;99.90;;;;;;5062997;28;20069;-92
2021/04/08 03:50:37;;;;;;;6.10;1.33;;;4.40;99.90;;;;;;5067219;28;21513;-92
2021/04/08 03:53:05;;;;;;;5.03;1.10;;;4.40;99.90;;;;;;5067312;28;20131;-91
2021/04/08 03:55:34;;;;;;;5.18;1.20;;;4.40;99.90;;;;;;5058753;28;20363;-92
2021/04/08 03:58:08;;;;;;;7.57;1.48;;;4.40;99.90;;;;;;5086637;28;20502;-92
2021/04/08 04:00:36;;;;;;;3.65;1.48;;;4.30;99.90;;;;;;5069839;28;20055;-92
2021/04/08 04:03:07;;;;;;;8.27;1.02;;;4.30;99.90;;;;;;5069892;28;20043;-92
2021/04/08 04:05:35;;;;;;;5.88;1.40;;;4.30;99.90;;;;;;5071135;28;20466;-92
2021/04/08 04:08:03;;;;;;;;;;;4.20;99.90;;;;;;5061912;28;20048;-91
2021/04/08 04:10:35;;;;;;;5.95;1.35;;;4.20;99.90;;;;;;5068750;28;19921;-91
2021/04/08 04:13:02;;;;;;;7.65;1.27;;;4.20;99.90;;;;;;5069941;28;20044;-92
2021/04/08 04:15:38;;;;;;;9.48;1.40;;;4.20;99.90;;;;;;5063263;28;20138;-92
2021/04/08 04:18:08;;;;;;;5.22;1.13;;;4.20;99.90;;;;;;5062148;28;20474;-92
2021/04/08 04:20:36;;;;;;;5.13;1.40;;;4.20;99.90;;;;;;5056941;28;20481;-92
2021/04/08 04:23:04;;;;;;;4.38;1.13;;;4.10;99.90;;;;;;5063384;28;20488;-92
2021/04/08 04:25:31;;;;;;;5.43;1.20;;;4.10;99.90;;;;;;5068350;28;20519;-92
2021/04/08 04:28:02;;;;;;;5.03;1.10;;;4.00;99.90;;;;;;5061042;28;20044;-92
2021/04/08 04:30:31;;;;;;;7.43;1.50;;;4.00;99.90;;;;;;5047290;28;20351;-91
2021/04/08 04:32:59;;;;;;;5.45;1.27;;;3.90;99.90;;;;;;5059156;28;20036;-93
2021/04/08 04:35:39;;;;;;;;;;;;;;;;;;;;;
2021/04/08 04:38:13;;;;;;;4.65;1.45;;;3.80;99.90;;;;;;5051658;28;20078;-92
2021/04/08 04:40:45;;;;;;;3.88;1.52;;;3.80;99.90;;;;;;5057846;28;20401;-92
2021/04/08 04:43:14;;;;;;;7.55;1.65;;;3.70;99.90;;;;;;5071699;28;20127;-93
2021/04/08 04:46:04;;;;;;;5.95;1.50;;;3.60;99.90;;;;;;5069541;28;20127;-93
2021/04/08 04:48:38;;;;;;;5.75;1.52;;;3.60;99.90;;;;;;5063210;28;20045;-92
2021/04/08 04:51:10;;;;;;;5.35;1.55;;;3.50;99.90;;;;;;5083091;28;20032;-91
2021/04/08 04:53:37;;;;;;;3.70;1.43;;;3.40;99.90;;;;;;5076916;28;20098;-92
2021/04/08 04:56:05;;;;;;;4.88;1.85;;;3.40;99.90;;;;;;5064292;28;20396;-92
2021/04/08 04:58:43;;;;;;;5.82;1.60;;;3.30;99.90;;;;;;5060009;28;20036;-92
2021/04/08 05:01:13;;;;;;;;;;;3.20;99.90;;;;;;5067393;28;20047;-92
2021/04/08 05:03:39;;;;;;;4.65;1.42;;;3.20;99.90;;;;;;5077493;28;19982;-92
2021/04/08 05:06:11;;;;;;;4.13;1.20;;;3.10;99.90;;;;;;5039204;28;20051;-93
2021/04/08 05:08:40;;;;;;;5.80;1.60;;;3.00;99.90;;;;;;5067430;28;20056;-93
2021/04/08 05:11:20;;;;;;;7.22;1.60;;;3.00;99.90;;;;;;5064327;28;20083;-92
2021/04/08 05:13:56;;;;;;;5.10;1.40;;;3.00;99.90;;;;;;5069145;28;20053;-92
2021/04/08 05:16:27;;;;;;;6.50;1.58;;;3.00;99.90;;;;;;5061284;28;20048;-93
2021/04/08 05:18:58;;;;;;;7.13;1.75;;;3.00;99.90;;;;;;5064337;28;20033;-91
2021/04/08 05:21:48;;;;;;;11.55;2.00;;;2.90;99.90;;;;;;4976873;28;20046;-93
2021/04/08 05:24:19;;;;;;;5.25;1.95;;;2.90;99.90;;;;;;4994963;28;20149;-94
2021/04/08 05:26:51;;;;;;;8.70;2.65;;;2.90;99.90;;;;;;5011174;28;20124;-94
2021/04/08 05:29:19;;;;;;;7.78;2.22;;;3.00;99.90;;;;;;4993645;28;20099;-94
2021/04/08 05:31:46;;;;;;;7.53;1.88;;;2.90;99.90;;;;;;4983704;28;20053;-93
2021/04/08 05:34:21;;;;;;;7.00;1.80;;;2.90;99.90;;;;;;5002395;28;20053;-94
2021/04/08 05:36:52;;;;;;;6.15;1.70;;;2.90;99.90;;;;;;5013707;28;20465;-94
2021/04/08 05:39:23;;;;;;;5.40;1.65;;;2.90;99.90;;;;;;5014909;28;20394;-94
2021/04/08 05:42:18;;;;;;;;;;;;;;;;;;;;;
2021/04/08 05:45:14;;;;;;;7.72;1.90;;;2.80;99.90;;;;;;4985762;28;20052;-94
2021/04/08 05:47:43;;;;;;;8.65;2.47;;;2.80;99.90;;;;;;4996081;28;20077;-94
2021/04/08 05:50:20;;;;;;;4.55;1.88;;;2.70;99.90;;;;;;4969576;28;20051;-94
2021/04/08 05:52:53;;;;;;;5.93;1.60;;;2.70;99.90;;;;;;4978454;28;20061;-93
2021/04/08 05:55:34;;;;;;;6.03;1.80;;;2.70;99.90;;;;;;4976372;28;20052;-93
2021/04/08 05:58:25;;;;;;;;;;;;;;;;;;;;;
2021/04/08 06:01:03;;;;;;;10.13;2.03;;;2.70;99.90;;;;;;5011459;28;20435;-93
2021/04/08 06:03:55;;;;;;;10.50;2.10;;;2.70;99.90;;;;;;5009399;28;20065;-94
2021/04/08 06:06:34;;;;;;;4.95;1.52;;;2.80;99.90;;;;;;5023285;28;20048;-94
2021/04/08 06:09:08;;;;;;;5.10;1.63;;;2.80;99.90;;;;;;5009204;28;20049;-93
2021/04/08 06:11:46;;;;;;;5.72;2.00;;;2.80;99.90;;;;;;4993744;28;20118;-94
2021/04/08 06:14:16;;;;;;;10.68;1.98;;;2.90;99.90;;;;;;4985026;28;20101;-90
2021/04/08 06:16:43;;;;;;;5.20;1.58;;;2.90;99.90;;;;;;5026611;28;20108;-91
2021/04/08 06:19:12;;;;;;;4.68;1.73;;;3.00;99.90;;;;;;4985387;28;20042;-90
2021/04/08 06:21:40;;;;;;;7.72;2.15;;;3.00;99.90;;;;;;5017457;28;20052;-88
2021/04/08 06:24:11;;;;;;;3.53;1.65;;;3.10;99.90;;;;;;4992713;28;20092;-90
2021/04/08 06:26:38;;;;;;;6.68;1.63;;;3.20;99.90;;;;;;5010106;28;20049;-89
2021/04/08 06:29:06;;;;;;;7.47;1.85;;;3.20;99.90;;;;;;5047729;28;20041;-89
2021/04/08 06:31:47;;;;;;;10.60;2.05;;;3.30;99.90;;;;;;5056137;28;20152;-90
2021/04/08 06:34:14;;;;;;;8.70;1.58;;;3.30;99.90;;;;;;5052907;28;20091;-91
2021/04/08 06:36:41;;;;;;;6.28;1.83;;;3.40;99.90;;;;;;5055282;28;20044;-89
2021/04/08 06:39:10;;;;;;;10.73;1.73;;;3.50;99.90;;;;;;5038478;28;20501;-89
2021/04/08 06:41:37;;;;;;;8.52;1.85;;;3.60;99.90;;;;;;5030320;28;20552;-89
2021/04/08 06:44:09;;;;;;;4.15;2.13;;;3.60;99.90;;;;;;5050184;28;20041;-90
2021/04/08 06:46:42;;;;;;;6.45;2.13;;;3.70;99.90;;;;;;5044765;28;20045;-89
2021/04/08 06:49:31;;;;;;;7.60;1.70;;;3.70;99.90;;;;;;5046586;28;20504;-90
2021/04/08 06:51:59;;;;;;;10.27;2.00;;;3.80;99.90;;;;;;5046766;28;20045;-90
2021/04/08 06:54:28;;;;;;;6.53;1.90;;;3.90;99.90;;;;;;5048939;28;20523;-90
2021/04/08 06:56:56;;;;;;;;;;;4.00;99.90;;;;;;5050599;28;20425;-89
2021/04/08 06:59:24;;;;;;;10.25;2.38;;;4.10;99.90;;;;;;5034594;28;20266;-90
2021/04/08 07:01:51;;;;;;;5.38;1.85;;;4.20;99.90;;;;;;5047171;28;20072;-90
2021/04/08 07:04:19;;;;;;;7.05;1.75;;;4.40;99.90;;;;;;5046382;28;20068;-90
2021/04/08 07:06:46;;;;;;;8.18;2.05;;;4.40;99.90;;;;;;5040071;28;20127;-90
2021/04/08 07:09:13;;;;;;;3.97;1.95;;;4.60;99.90;;;;;;5048170;28;20041;-90
2021/04/08 07:11:42;;;;;;;9.23;2.05;;;4.70;99.90;;;;;;5052630;28;20049;-89
2021/04/08 07:14:10;;;;;;;6.13;1.95;;;4.80;99.90;;;;;;5046397;28;20041;-90
2021/04/08 07:16:43;;;;;;;6.07;2.08;;;4.90;99.90;;;;;;5034030;28;20074;-91
2021/04/08 07:19:10;;;;;;;5.75;1.75;;;5.10;99.90;;;;;;5041987;28;20071;-90
2021/04/08 07:21:38;;;;;;;7.15;1.95;;;5.20;99.90;;;;;;5075364;28;20032;-90
2021/04/08 07:24:10;;;;;;;6.53;1.65;;;5.30;99.90;;;;;;5091613;28;20078;-90
2021/04/08 07:26:58;;;;;;;4.45;1.52;;;5.50;99.90;;;;;;5067064;28;20138;-90
2021/04/08 07:29:40;;;;;;;9.95;2.17;;;5.60;99.90;;;;;;5076152;28;20041;-91
2021/04/08 07:32:08;;;;;;;11.50;1.90;;;5.80;99.90;;;;;;5069539;28;20065;-91
2021/04/08 07:34:38;;;;;;;4.45;2.17;;;5.90;99.90;;;;;;5093375;28;20044;-91
2021/04/08 07:37:05;;;;;;;;;;;6.00;99.90;;;;;;5081066;28;20040;-91
2021/04/08 07:39:43;;;;;;;8.65;2.78;;;6.10;99.90;;;;;;5077747;28;19927;-91
2021/04/08 07:42:15;;;;;;;63.08;32.80;;;6.30;99.90;;;;;;5072189;28;20043;-91
2021/04/08 07:44:49;;;;;;;8.75;4.20;;;6.40;99.90;;;;;;5072370;28;20040;-90
2021/04/08 07:47:21;;;;;;;7.30;2.90;;;6.50;99.90;;;;;;5059078;28;20089;-89
2021/04/08 07:49:50;;;;;;;7.90;2.80;;;6.60;99.90;;;;;;5078355;28;20408;-90
2021/04/08 07:52:34;;;;;;;4.63;1.90;;;6.80;99.90;;;;;;5073368;28;20370;-91
2021/04/08 07:55:10;;;;;;;6.22;2.15;;;6.90;99.90;;;;;;5060942;28;20040;-90
2021/04/08 07:57:55;;;;;;;9.50;2.10;;;6.90;99.90;;;;;;5073884;28;20055;-90
2021/04/08 08:00:26;;;;;;;6.70;2.05;;;7.00;99.90;;;;;;5070087;28;20063;-91
2021/04/08 08:02:54;;;;;;;6.80;2.03;;;7.10;99.90;;;;;;5060502;28;20048;-91
2021/04/08 08:05:45;;;;;;;11.60;2.22;;;7.20;99.90;;;;;;5045675;28;20052;-91
2021/04/08 08:08:19;;;;;;;5.68;1.55;;;7.20;99.90;;;;;;5068860;28;21935;-91
2021/04/08 08:11:01;;;;;;;6.47;1.70;;;7.30;99.80;;;;;;5071092;28;20044;-90
2021/04/08 08:13:33;;;;;;;5.93;2.30;;;7.40;99.70;;;;;;5067621;28;20060;-90
2021/04/08 08:16:04;;;;;;;8.05;1.95;;;7.50;99.70;;;;;;5070224;28;20404;-91
2021/04/08 08:18:43;;;;;;;4.35;1.90;;;7.60;99.30;;;;;;5065807;28;20043;-89
2021/04/08 08:21:11;;;;;;;9.32;2.30;;;7.70;99.10;;;;;;5071473;28;20040;-90
2021/04/08 08:23:50;;;;;;;9.32;2.28;;;7.80;99.30;;;;;;5070265;28;20052;-89
2021/04/08 08:26:25;;;;;;;7.65;2.08;;;7.90;99.10;;;;;;5071986;28;20139;-90
2021/04/08 08:28:53;;;;;;;8.07;2.58;;;8.10;99.10;;;;;;5069351;28;20497;-90
2021/04/08 08:31:39;;;;;;;9.35;2.20;;;8.20;98.90;;;;;;5074929;28;20099;-91
2021/04/08 08:34:17;;;;;;;7.95;2.53;;;8.40;98.90;;;;;;5083839;28;20040;-90
2021/04/08 08:36:47;;;;;;;7.60;2.05;;;8.50;98.60;;;;;;5090034;28;20041;-91
2021/04/08 08:39:23;;;;;;;3.97;1.90;;;8.70;98.60;;;;;;5061292;28;20044;-90
2021/04/08 08:41:51;;;;;;;6.97;2.13;;;8.80;98.60;;;;;;5086747;28;20044;-90
2021/04/08 08:44:20;;;;;;;16.00;7.60;;;9.00;98.50;;;;;;5070683;28;20058;-91
2021/04/08 08:47:01;;;;;;;5.35;2.40;;;9.10;98.50;;;;;;5059933;28;20060;-91
2021/04/08 08:49:41;;;;;;;8.60;2.10;;;9.30;98.50;;;;;;5069303;28;20060;-91
2021/04/08 08:52:12;;;;;;;5.40;1.90;;;9.40;98.20;;;;;;5063256;28;20132;-91
2021/04/08 08:54:42;;;;;;;10.43;5.32;;;9.60;98.20;;;;;;5079376;28;20048;-90
2021/04/08 08:57:09;;;;;;;;;;;9.80;98.10;;;;;;5068656;28;20485;-91
2021/04/08 08:59:36;;;;;;;9.43;3.63;;;9.90;97.90;;;;;;5069853;28;19927;-91
2021/04/08 09:02:13;;;;;;;;;;;;;;;;;;;;;
2021/04/08 09:04:48;;;;;;;6.82;3.25;;;10.20;97.80;;;;;;5054794;28;20436;-91
2021/04/08 09:07:22;;;;;;;;;;;10.40;97.60;;;;;;5055066;28;20056;-91
2021/04/08 09:09:56;;;;;;;7.57;1.95;;;10.40;96.70;;;;;;5083405;28;19927;-91
2021/04/08 09:12:26;;;;;;;6.82;2.13;;;10.50;97.20;;;;;;5070305;28;20048;-93
2021/04/08 09:15:02;;;;;;;6.82;1.85;;;10.70;97.20;;;;;;5071639;28;20466;-91
2021/04/08 09:17:47;;;;;;;4.32;1.70;;;10.80;97.00;;;;;;5069276;28;20048;-91
2021/04/08 09:20:19;;;;;;;4.18;1.55;;;10.90;96.70;;;;;;5068758;28;20044;-91
2021/04/08 09:23:08;;;;;;;3.75;1.60;;;11.00;96.60;;;;;;5077492;28;20051;-92
2021/04/08 09:25:58;;;;;;;3.38;1.50;;;11.20;96.60;;;;;;5045272;28;20066;-91
2021/04/08 09:28:31;;;;;;;3.83;1.70;;;11.40;96.30;;;;;;5052893;28;20043;-90
2021/04/08 09:33:42;;;;;;;7.07;1.77;;;11.60;96.10;;;;;;5067702;28;20098;-91
2021/04/08 09:36:24;;;;;;;4.03;1.67;;;11.70;95.80;;;;;;5039155;28;20052;-92
2021/04/08 09:39:02;;;;;;;6.80;2.00;;;11.80;95.60;;;;;;5054823;28;20099;-91
2021/04/08 09:41:56;;;;;;;4.75;1.58;;;11.90;95.50;;;;;;5044666;28;20041;-93
2021/04/08 09:44:27;;;;;;;3.47;1.15;;;12.00;95.30;;;;;;5051411;28;20052;-91
2021/04/08 09:46:55;;;;;;;4.72;1.50;;;12.10;95.00;;;;;;5056492;28;20460;-90
2021/04/08 09:49:45;;;;;;;3.88;1.23;;;12.20;95.00;;;;;;5066644;28;20028;-94
2021/04/08 09:52:19;;;;;;;3.25;1.20;;;12.30;94.30;;;;;;5045205;28;20136;-91
2021/04/08 09:54:56;;;;;;;4.38;1.25;;;12.30;94.60;;;;;;5062407;28;20048;-91
2021/04/08 09:57:36;;;;;;;4.03;1.10;;;12.40;94.50;;;;;;5046182;28;20068;-91
2021/04/08 10:00:10;;;;;;;4.55;1.52;;;12.50;94.40;;;;;;5051448;28;20075;-91
2021/04/08 10:02:36;;;;;;;3.90;1.10;;;12.70;94.20;;;;;;5055919;28;20114;-91
2021/04/08 10:05:06;;;;;;;3.67;1.60;;;12.80;94.20;;;;;;5052280;28;20131;-91
2021/04/08 10:07:52;;;;;;;1.98;0.88;;;13.00;93.90;;;;;;5085831;28;20121;-90
2021/04/08 10:10:38;;;;;;;2.80;1.20;;;13.00;92.90;;;;;;5052187;28;20059;-91
2021/04/08 10:13:27;;;;;;;6.20;1.33;;;12.90;93.10;;;;;;5053775;28;20047;-92
2021/04/08 10:15:56;;;;;;;5.85;1.40;;;13.00;93.30;;;;;;5045285;28;20075;-90
2021/04/08 10:18:26;;;;;;;3.88;1.30;;;13.10;93.70;;;;;;5052445;28;20482;-92
2021/04/08 10:20:57;;;;;;;5.90;1.50;;;13.20;93.50;;;;;;5056890;28;20044;-91
2021/04/08 10:23:39;;;;;;;5.10;1.40;;;13.30;93.30;;;;;;5061810;28;20048;-91
2021/04/08 10:26:08;;;;;;;6.40;3.80;;;13.40;92.70;;;;;;5074452;28;20044;-91
2021/04/08 10:28:40;;;;;;;7.15;1.90;;;13.40;92.90;;;;;;5055796;28;20044;-91
2021/04/08 10:31:14;;;;;;;5.35;3.20;;;13.40;93.00;;;;;;5062479;28;20117;-92
2021/04/08 10:33:41;;;;;;;5.45;1.70;;;13.40;93.00;;;;;;5066161;28;20040;-91
2021/04/08 10:36:09;;;;;;;6.00;1.80;;;13.50;93.10;;;;;;5073430;28;20040;-92
2021/04/08 10:38:35;;;;;;;7.45;1.52;;;13.50;92.90;;;;;;5060273;28;20058;-93
2021/04/08 10:41:05;;;;;;;5.43;1.80;;;13.50;92.50;;;;;;5071138;28;20048;-92
2021/04/08 10:43:34;;;;;;;6.55;2.00;;;13.50;92.50;;;;;;5064544;28;20056;-91
2021/04/08 10:46:04;;;;;;;6.15;2.10;;;13.50;92.70;;;;;;5081831;28;20055;-93
2021/04/08 10:48:39;;;;;;;3.80;1.67;;;13.50;92.80;;;;;;5057636;28;20123;-93
2021/04/08 10:51:13;;;;;;;4.80;1.80;;;13.50;92.80;;;;;;5035885;28;20093;-93
2021/04/08 10:53:46;;;;;;;4.55;1.80;;;13.40;92.70;;;;;;5058702;28;20044;-93
2021/04/08 10:56:22;;;;;;;6.28;2.05;;;13.30;92.50;;;;;;5047767;28;20047;-92
2021/04/08 11:02:43;;;;;;;6.53;1.58;;;13.30;92.40;;;;;;4871105;29;20124;-92
2021/04/08 11:05:25;;;;;;;4.93;1.98;;;13.20;92.60;;;;;;4926062;29;20372;-93
2021/04/08 11:07:58;;;;;;;5.30;1.98;;;13.20;92.30;;;;;;4906626;29;20363;-92
2021/04/08 11:10:29;;;;;;;5.13;2.20;;;13.20;92.30;;;;;;4915731;28;20039;-92
2021/04/08 11:12:58;;;;;;;6.80;2.00;;;13.30;92.70;;;;;;4916692;29;20201;-92
2021/04/08 11:15:35;;;;;;;6.03;1.80;;;13.40;92.50;;;;;;4924425;28;20076;-92
2021/04/08 11:18:12;;;;;;;7.07;2.20;;;13.40;92.10;;;;;;4930331;28;20074;-91
2021/04/08 11:21:17;;;;;;;6.07;2.22;;;13.40;92.20;;;;;;4920243;29;20046;-93
2021/04/08 11:23:45;;;;;;;6.22;1.98;;;13.60;92.20;;;;;;4924472;29;20048;-92
2021/04/08 11:26:14;;;;;;;3.95;1.80;;;13.70;92.30;;;;;;4923520;29;20079;-91
2021/04/08 11:28:42;;;;;;;3.90;1.85;;;13.80;92.30;;;;;;4934626;28;20099;-91
2021/04/08 11:31:19;;;;;;;6.13;2.50;;;14.00;92.40;;;;;;4932147;29;20071;-91
2021/04/08 11:34:02;;;;;;;8.73;6.68;;;14.20;92.10;;;;;;4930838;29;20070;-91
2021/04/08 11:36:34;;;;;;;7.72;3.10;;;14.40;91.30;;;;;;4914358;29;20702;-91
2021/04/08 11:39:17;;;;;;;10.45;7.65;;;14.40;91.20;;;;;;4988154;28;20063;-92
2021/04/08 11:41:43;;;;;;;4.47;2.13;;;14.40;90.70;;;;;;5065380;28;20040;-92
2021/04/08 11:44:24;;;;;;;6.93;3.08;;;14.30;90.70;;;;;;5036018;28;20477;-92
2021/04/08 11:46:51;;;;;;;5.22;2.63;;;14.30;90.60;;;;;;5067298;28;20553;-91
2021/04/08 11:49:20;;;;;;;5.75;1.80;;;14.30;90.80;;;;;;5061446;28;20052;-91
2021/04/08 11:51:50;;;;;;;6.07;2.15;;;14.40;90.50;;;;;;5071340;28;20131;-92
2021/04/08 11:54:19;;;;;;;3.70;1.90;;;14.50;90.40;;;;;;5074771;28;20048;-92
2021/04/08 11:56:47;;;;;;;7.97;2.15;;;14.60;90.00;;;;;;5073765;28;20055;-92
2021/04/08 11:59:18;;;;;;;5.82;2.25;;;14.60;89.80;;;;;;5071100;28;20048;-92
2021/04/08 12:01:46;;;;;;;5.43;2.70;;;14.70;89.80;;;;;;5071205;28;20481;-91
2021/04/08 12:04:23;;;;;;;8.52;3.30;;;14.70;88.90;;;;;;5071707;28;20032;-91
2021/04/08 12:07:09;;;;;;;6.60;2.20;;;14.70;89.00;;;;;;5059286;28;20245;-92
2021/04/08 12:09:40;;;;;;;4.35;2.00;;;14.70;87.80;;;;;;5060413;28;20048;-92
2021/04/08 12:12:07;;;;;;;6.85;1.75;;;14.70;87.60;;;;;;5058183;28;20155;-92
2021/04/08 12:14:58;;;;;;;4.07;1.80;;;14.70;86.40;;;;;;5068517;28;20048;-92
2021/04/08 12:17:26;;;;;;;4.05;1.65;;;14.70;84.40;;;;;;5078856;28;20048;-93
2021/04/08 12:20:11;;;;;;;3.30;1.45;;;14.70;85.50;;;;;;5083626;28;20392;-91
2021/04/08 12:22:38;;;;;;;3.83;2.28;;;14.70;85.90;;;;;;5062064;28;20485;-91
2021/04/08 12:25:13;;;;;;;6.15;2.65;;;14.60;85.80;;;;;;5071445;28;20048;-90
2021/04/08 12:27:40;;;;;;;8.70;3.83;;;14.60;85.40;;;;;;5077107;28;20141;-92
2021/04/08 12:30:11;;;;;;;4.57;1.95;;;14.70;85.90;;;;;;5052697;28;20044;-91
2021/04/08 12:32:38;;;;;;;4.22;1.90;;;14.70;85.60;;;;;;5056614;28;20044;-92
2021/04/08 12:35:07;;;;;;;4.35;2.00;;;14.70;85.20;;;;;;5057869;28;20501;-91
2021/04/08 12:37:35;;;;;;;5.38;1.70;;;14.70;84.30;;;;;;5071177;28;20054;-91
2021/04/08 12:40:07;;;;;;;5.45;1.88;;;14.70;83.50;;;;;;5054016;28;20075;-92
2021/04/08 12:42:34;;;;;;;3.22;1.95;;;14.70;83.80;;;;;;5069520;28;20056;-92
2021/04/08 12:45:06;;;;;;;3.55;1.90;;;14.80;83.50;;;;;;5070764;28;20437;-91
2021/04/08 12:47:33;;;;;;;5.93;2.50;;;14.70;83.00;;;;;;5034993;28;20044;-92
2021/04/08 12:50:02;;;;;;;3.97;2.05;;;14.80;82.90;;;;;;5053613;28;20060;-94
2021/04/08 12:52:29;;;;;;;4.18;2.33;;;14.80;81.90;;;;;;5071375;28;20058;-91
2021/04/08 12:55:00;;;;;;;5.10;2.40;;;14.80;81.90;;;;;;5061973;28;20090;-92
2021/04/08 12:57:28;;;;;;;5.68;2.42;;;14.80;82.60;;;;;;5063455;28;20454;-92
2021/04/08 13:00:00;;;;;;;7.38;2.67;;;14.80;82.90;;;;;;5063488;28;20047;-92
2021/04/08 13:02:36;;;;;;;4.13;2.20;;;14.70;82.50;;;;;;5066260;28;20071;-91
2021/04/08 13:05:07;;;;;;;4.80;2.70;;;14.70;83.20;;;;;;5071797;28;20036;-92
2021/04/08 13:07:38;;;;;;;5.68;2.75;;;14.70;82.90;;;;;;5062616;28;20090;-91
2021/04/08 13:10:07;;;;;;;4.28;2.55;;;14.70;82.70;;;;;;5073102;28;20048;-93
2021/04/08 13:12:35;;;;;;;3.85;2.10;;;14.60;82.70;;;;;;5070424;28;20051;-92
2021/04/08 13:15:07;;;;;;;4.68;2.47;;;14.60;83.30;;;;;;5067116;28;20044;-92
2021/04/08 13:17:39;;;;;;;4.30;2.10;;;14.60;83.60;;;;;;5051907;28;20079;-92
2021/04/08 13:20:13;;;;;;;6.05;2.20;;;14.60;83.70;;;;;;5069599;28;20033;-91
2021/04/08 13:22:53;;;;;;;5.63;2.55;;;14.60;83.10;;;;;;5058784;28;20094;-93
2021/04/08 13:25:25;;;;;;;5.05;2.33;;;14.60;81.80;;;;;;5054967;28;20072;-92
2021/04/08 13:27:55;;;;;;;6.10;2.75;;;14.50;82.00;;;;;;5062121;28;20123;-92
2021/04/08 13:30:27;;;;;;;7.60;2.50;;;14.50;81.70;;;;;;5050370;28;20058;-93
2021/04/08 13:32:54;;;;;;;5.82;2.33;;;14.60;81.70;;;;;;5088326;28;20048;-89
2021/04/08 13:35:22;;;;;;;6.10;2.40;;;14.60;81.60;;;;;;5052635;28;20040;-91
2021/04/08 13:37:50;;;;;;;6.13;2.50;;;14.60;81.50;;;;;;5052634;28;20545;-91
2021/04/08 13:40:22;;;;;;;4.63;2.35;;;14.60;81.50;;;;;;5043846;28;20087;-92